createdAt,value
2017-04-06T00:00:09.466Z,5.4
2017-04-06T00:01:11.281Z,5.4
2017-04-06T00:02:13.073Z,5.4
2017-04-06T00:03:14.973Z,5.4
2017-04-06T00:04:17.091Z,5.4
2017-04-06T00:05:18.913Z,5.4
2017-04-06T00:06:20.702Z,5.3
2017-04-06T00:07:22.520Z,5.3
2017-04-06T00:08:24.302Z,5.3
2017-04-06T00:09:26.632Z,5.2
2017-04-06T00:10:28.634Z,5.2
2017-04-06T00:11:30.421Z,5.2
2017-04-06T00:12:32.217Z,5.2
2017-04-06T00:13:34.005Z,5.1
2017-04-06T00:14:35.794Z,5.2
2017-04-06T00:15:37.659Z,5.3
2017-04-06T00:16:39.652Z,5.3
2017-04-06T00:17:41.443Z,5.2
2017-04-06T00:18:43.231Z,5.2
2017-04-06T00:19:45.031Z,5.2
2017-04-06T00:20:46.820Z,5.2
2017-04-06T00:21:48.693Z,5.2
2017-04-06T00:22:50.490Z,5.2
2017-04-06T00:23:52.280Z,5.2
2017-04-06T00:24:54.074Z,5.1
2017-04-06T00:25:55.871Z,5.2
2017-04-06T00:26:57.667Z,5.1
2017-04-06T00:27:59.587Z,5
2017-04-06T00:29:01.369Z,5
2017-04-06T00:30:03.163Z,5
2017-04-06T00:31:04.955Z,5
2017-04-06T00:32:07.083Z,5
2017-04-06T00:33:09.211Z,5
2017-04-06T00:34:11.347Z,5
2017-04-06T00:35:13.251Z,5
2017-04-06T00:36:15.047Z,5
2017-04-06T00:37:16.827Z,5
2017-04-06T00:38:18.621Z,5
2017-04-06T00:39:20.416Z,5
2017-04-06T00:40:22.547Z,5
2017-04-06T00:41:24.447Z,4.9
2017-04-06T00:42:26.251Z,4.9
2017-04-06T00:43:28.041Z,4.9
2017-04-06T00:44:29.838Z,4.9
2017-04-06T00:45:31.621Z,4.9
2017-04-06T00:46:33.421Z,4.9
2017-04-06T00:47:35.327Z,4.9
2017-04-06T00:48:37.131Z,4.9
2017-04-06T00:49:38.925Z,4.8
2017-04-06T00:50:40.717Z,4.8
2017-04-06T00:51:42.504Z,4.8
2017-04-06T00:52:44.306Z,4.8
2017-04-06T00:53:46.261Z,4.8
2017-04-06T00:54:48.047Z,4.8
2017-04-06T00:55:49.840Z,4.8
2017-04-06T00:56:51.645Z,4.7
2017-04-06T00:57:53.442Z,4.6
2017-04-06T00:58:55.236Z,4.7
2017-04-06T00:59:57.241Z,4.7
2017-04-06T01:00:59.033Z,4.7
2017-04-06T01:02:01.167Z,4.7
2017-04-06T01:03:02.962Z,4.7
2017-04-06T01:04:04.754Z,4.7
2017-04-06T01:05:06.558Z,4.7
2017-04-06T01:06:08.444Z,4.7
2017-04-06T01:07:10.248Z,4.6
2017-04-06T01:08:12.047Z,4.6
2017-04-06T01:09:13.848Z,4.5
2017-04-06T01:10:15.634Z,4.5
2017-04-06T01:11:17.426Z,4.5
2017-04-06T01:12:19.310Z,4.5
2017-04-06T01:13:21.098Z,4.5
2017-04-06T01:14:22.881Z,4.5
2017-04-06T01:15:24.678Z,4.4
2017-04-06T01:16:26.802Z,4.4
2017-04-06T01:17:28.599Z,4.4
2017-04-06T01:18:30.607Z,4.4
2017-04-06T01:19:32.400Z,4.4
2017-04-06T01:20:34.868Z,4.4
2017-04-06T01:21:36.655Z,4.4
2017-04-06T01:22:38.442Z,4.4
2017-04-06T01:23:40.238Z,4.3
2017-04-06T01:24:42.198Z,4.3
2017-04-06T01:25:44.192Z,4.4
2017-04-06T01:26:45.976Z,4.4
2017-04-06T01:27:47.786Z,4.4
2017-04-06T01:28:49.594Z,4.3
2017-04-06T01:29:51.396Z,4.3
2017-04-06T01:30:53.193Z,4.3
2017-04-06T01:31:54.984Z,4.2
2017-04-06T01:32:56.778Z,4.2
2017-04-06T01:33:58.569Z,4.2
2017-04-06T01:35:00.367Z,4.2
2017-04-06T01:36:02.153Z,4.1
2017-04-06T01:37:03.941Z,4.2
2017-04-06T01:38:06.247Z,4.2
2017-04-06T01:39:08.035Z,4.2
2017-04-06T01:40:10.160Z,4.2
2017-04-06T01:41:11.944Z,4.3
2017-04-06T01:42:13.743Z,4.3
2017-04-06T01:43:15.771Z,4.4
2017-04-06T01:44:17.557Z,4.4
2017-04-06T01:45:19.351Z,4.4
2017-04-06T01:46:21.144Z,4.4
2017-04-06T01:47:22.931Z,4.4
2017-04-06T01:48:24.729Z,4.4
2017-04-06T01:49:26.521Z,4.4
2017-04-06T01:50:28.311Z,4.4
2017-04-06T01:51:30.363Z,4.4
2017-04-06T01:52:32.156Z,4.4
2017-04-06T01:53:33.942Z,4.3
2017-04-06T01:54:35.731Z,4.3
2017-04-06T01:55:37.528Z,4.3
2017-04-06T01:56:39.312Z,4.4
2017-04-06T01:57:41.095Z,4.4
2017-04-06T01:58:42.905Z,4.4
2017-04-06T01:59:44.682Z,4.4
2017-04-06T02:00:46.473Z,4.3
2017-04-06T02:01:48.270Z,4.3
2017-04-06T02:02:50.065Z,4.3
2017-04-06T02:03:51.850Z,4.3
2017-04-06T02:04:53.642Z,4.3
2017-04-06T02:05:55.434Z,4.3
2017-04-06T02:06:57.220Z,4.3
2017-04-06T02:07:59.024Z,4.3
2017-04-06T02:09:00.816Z,4.3
2017-04-06T02:10:02.604Z,4.3
2017-04-06T02:11:04.409Z,4.3
2017-04-06T02:12:06.198Z,4.2
2017-04-06T02:13:07.992Z,4.2
2017-04-06T02:14:10.116Z,4.3
2017-04-06T02:15:11.908Z,4.3
2017-04-06T02:16:13.702Z,4.3
2017-04-06T02:17:15.491Z,4.3
2017-04-06T02:18:17.285Z,4.3
2017-04-06T02:19:19.059Z,4.2
2017-04-06T02:20:21.191Z,4.3
2017-04-06T02:21:22.985Z,4.3
2017-04-06T02:22:24.775Z,4.2
2017-04-06T02:23:26.566Z,4.3
2017-04-06T02:24:28.361Z,4.3
2017-04-06T02:25:30.152Z,4.2
2017-04-06T02:26:31.948Z,4.2
2017-04-06T02:27:33.739Z,4.2
2017-04-06T02:28:35.525Z,4.2
2017-04-06T02:29:37.315Z,4.2
2017-04-06T02:30:39.111Z,4.2
2017-04-06T02:31:40.904Z,4.2
2017-04-06T02:32:42.686Z,4.2
2017-04-06T02:33:44.495Z,4.1
2017-04-06T02:34:46.281Z,4.1
2017-04-06T02:35:48.081Z,4.1
2017-04-06T02:36:49.868Z,4
2017-04-06T02:37:51.658Z,4.1
2017-04-06T02:38:53.441Z,4.1
2017-04-06T02:39:55.232Z,4.1
2017-04-06T02:40:57.018Z,4.2
2017-04-06T02:41:58.810Z,4.1
2017-04-06T02:43:00.598Z,4.1
2017-04-06T02:44:02.399Z,4.1
2017-04-06T02:45:04.190Z,4.1
2017-04-06T02:46:06.325Z,4.1
2017-04-06T02:47:08.111Z,4.1
2017-04-06T02:48:09.896Z,4.1
2017-04-06T02:49:11.691Z,4.1
2017-04-06T02:50:13.820Z,4.1
2017-04-06T02:51:15.610Z,4.1
2017-04-06T02:52:17.398Z,4
2017-04-06T02:53:19.537Z,4.1
2017-04-06T02:54:21.340Z,4.1
2017-04-06T02:55:23.131Z,4.1
2017-04-06T02:56:24.917Z,4.1
2017-04-06T02:57:27.083Z,4.2
2017-04-06T02:58:28.872Z,4.1
2017-04-06T02:59:30.659Z,4.1
2017-04-06T03:00:32.441Z,4.1
2017-04-06T03:01:34.226Z,4
2017-04-06T03:02:36.013Z,4
2017-04-06T03:03:37.799Z,3.9
2017-04-06T03:04:39.587Z,3.9
2017-04-06T03:05:41.385Z,3.9
2017-04-06T03:06:43.171Z,3.8
2017-04-06T03:07:44.963Z,3.8
2017-04-06T03:08:46.750Z,3.8
2017-04-06T03:09:48.539Z,3.8
2017-04-06T03:10:50.337Z,3.9
2017-04-06T03:11:52.471Z,3.8
2017-04-06T03:12:54.260Z,3.8
2017-04-06T03:13:56.055Z,3.8
2017-04-06T03:14:57.842Z,3.8
2017-04-06T03:15:59.630Z,3.7
2017-04-06T03:17:01.768Z,3.8
2017-04-06T03:18:03.557Z,3.8
2017-04-06T03:19:05.346Z,3.7
2017-04-06T03:20:07.133Z,3.8
2017-04-06T03:21:08.933Z,3.7
2017-04-06T03:22:10.719Z,3.8
2017-04-06T03:23:12.512Z,3.8
2017-04-06T03:24:14.304Z,3.8
2017-04-06T03:25:16.398Z,3.8
2017-04-06T03:26:18.195Z,3.8
2017-04-06T03:27:19.987Z,3.7
2017-04-06T03:28:21.779Z,3.7
2017-04-06T03:29:23.564Z,3.7
2017-04-06T03:30:25.360Z,3.8
2017-04-06T03:31:27.145Z,3.8
2017-04-06T03:32:28.935Z,3.7
2017-04-06T03:33:30.722Z,3.7
2017-04-06T03:34:32.511Z,3.7
2017-04-06T03:35:34.294Z,3.8
2017-04-06T03:36:36.083Z,3.7
2017-04-06T03:37:37.886Z,3.8
2017-04-06T03:38:39.686Z,3.7
2017-04-06T03:39:41.473Z,3.7
2017-04-06T03:40:43.260Z,3.8
2017-04-06T03:41:45.048Z,3.8
2017-04-06T03:42:46.839Z,3.7
2017-04-06T03:43:48.625Z,3.7
2017-04-06T03:44:50.415Z,3.7
2017-04-06T03:45:52.543Z,3.7
2017-04-06T03:46:54.324Z,3.7
2017-04-06T03:47:56.122Z,3.7
2017-04-06T03:48:57.913Z,3.6
2017-04-06T03:49:59.699Z,3.6
2017-04-06T03:51:01.827Z,3.6
2017-04-06T03:52:03.624Z,3.6
2017-04-06T03:53:05.754Z,3.6
2017-04-06T03:54:07.541Z,3.6
2017-04-06T03:55:09.334Z,3.5
2017-04-06T03:56:11.121Z,3.5
2017-04-06T03:57:12.925Z,3.5
2017-04-06T03:58:14.709Z,3.5
2017-04-06T03:59:16.492Z,3.5
2017-04-06T04:00:18.273Z,3.5
2017-04-06T04:01:20.065Z,3.5
2017-04-06T04:02:21.862Z,3.5
2017-04-06T04:03:23.648Z,3.5
2017-04-06T04:04:25.437Z,3.5
2017-04-06T04:05:27.227Z,3.4
2017-04-06T04:06:29.010Z,3.5
2017-04-06T04:07:30.801Z,3.5
2017-04-06T04:08:32.594Z,3.5
2017-04-06T04:09:34.388Z,3.5
2017-04-06T04:10:36.168Z,3.4
2017-04-06T04:11:37.966Z,3.4
2017-04-06T04:12:39.756Z,3.4
2017-04-06T04:13:41.542Z,3.4
2017-04-06T04:14:43.328Z,3.5
2017-04-06T04:15:45.116Z,3.5
2017-04-06T04:16:46.903Z,3.5
2017-04-06T04:17:48.691Z,3.5
2017-04-06T04:18:50.483Z,3.4
2017-04-06T04:19:52.263Z,3.4
2017-04-06T04:20:54.050Z,3.4
2017-04-06T04:21:55.831Z,3.5
2017-04-06T04:22:57.954Z,3.4
2017-04-06T04:23:59.745Z,3.4
2017-04-06T04:25:01.532Z,3.4
2017-04-06T04:26:03.320Z,3.4
2017-04-06T04:27:05.447Z,3.3
2017-04-06T04:28:07.221Z,3.3
2017-04-06T04:29:09.012Z,3.3
2017-04-06T04:30:10.802Z,3.3
2017-04-06T04:31:12.592Z,3.3
2017-04-06T04:32:14.382Z,3.3
2017-04-06T04:33:16.179Z,3.4
2017-04-06T04:34:17.973Z,3.3
2017-04-06T04:35:20.097Z,3.3
2017-04-06T04:36:21.889Z,3.3
2017-04-06T04:37:23.675Z,3.3
2017-04-06T04:38:25.462Z,3.2
2017-04-06T04:39:27.252Z,3.2
2017-04-06T04:40:29.051Z,3.2
2017-04-06T04:41:30.841Z,3.2
2017-04-06T04:42:32.628Z,3.2
2017-04-06T04:43:34.434Z,3.2
2017-04-06T04:44:36.233Z,3.3
2017-04-06T04:45:39.894Z,3.3
2017-04-06T04:46:43.739Z,3.1
2017-04-06T04:47:45.534Z,3.1
2017-04-06T04:48:47.335Z,3.2
2017-04-06T04:49:49.163Z,3.1
2017-04-06T04:50:51.292Z,3.1
2017-04-06T04:51:53.077Z,3.1
2017-04-06T04:52:54.857Z,3.1
2017-04-06T04:53:56.645Z,3.1
2017-04-06T04:54:58.435Z,3.1
2017-04-06T04:56:00.275Z,3.2
2017-04-06T04:57:02.070Z,3.1
2017-04-06T04:58:03.861Z,3.1
2017-04-06T04:59:05.652Z,3.1
2017-04-06T05:00:07.466Z,3.1
2017-04-06T05:01:09.990Z,3.1
2017-04-06T05:02:11.786Z,3.1
2017-04-06T05:03:13.573Z,3.1
2017-04-06T05:04:15.754Z,3.1
2017-04-06T05:05:17.534Z,3.1
2017-04-06T05:06:19.372Z,3.1
2017-04-06T05:07:21.161Z,3.1
2017-04-06T05:08:22.960Z,3.1
2017-04-06T05:09:24.748Z,3.1
2017-04-06T05:10:26.552Z,3.2
2017-04-06T05:11:28.346Z,3.2
2017-04-06T05:12:30.139Z,3.2
2017-04-06T05:13:31.933Z,3.2
2017-04-06T05:14:33.756Z,3.1
2017-04-06T05:15:35.548Z,3.1
2017-04-06T05:16:37.379Z,3.1
2017-04-06T05:17:39.170Z,3
2017-04-06T05:18:40.957Z,3
2017-04-06T05:19:42.799Z,3.1
2017-04-06T05:20:44.591Z,3.1
2017-04-06T05:21:46.422Z,3.1
2017-04-06T05:22:48.203Z,3.1
2017-04-06T05:23:49.992Z,3.2
2017-04-06T05:24:51.855Z,3.2
2017-04-06T05:25:53.653Z,3.2
2017-04-06T05:26:55.779Z,3.3
2017-04-06T05:27:57.563Z,3.3
2017-04-06T05:28:59.364Z,3.3
2017-04-06T05:30:01.181Z,3.4
2017-04-06T05:31:02.975Z,3.3
2017-04-06T05:32:04.765Z,3.3
2017-04-06T05:33:06.559Z,3.3
2017-04-06T05:34:08.355Z,3.3
2017-04-06T05:35:10.150Z,3.3
2017-04-06T05:36:11.941Z,3.3
2017-04-06T05:37:14.064Z,3.3
2017-04-06T05:38:15.862Z,3.3
2017-04-06T05:39:17.669Z,3.3
2017-04-06T05:40:19.457Z,3.4
2017-04-06T05:41:21.254Z,3.5
2017-04-06T05:42:23.051Z,3.6
2017-04-06T05:43:24.845Z,3.6
2017-04-06T05:44:26.785Z,3.6
2017-04-06T05:45:28.580Z,3.5
2017-04-06T05:46:30.369Z,3.5
2017-04-06T05:47:32.241Z,3.6
2017-04-06T05:48:34.033Z,3.6
2017-04-06T05:49:35.892Z,3.6
2017-04-06T05:50:37.689Z,3.6
2017-04-06T05:51:39.562Z,3.6
2017-04-06T05:52:41.356Z,3.6
2017-04-06T05:53:43.140Z,3.7
2017-04-06T05:54:44.963Z,3.9
2017-04-06T05:55:46.754Z,3.9
2017-04-06T05:56:48.547Z,3.8
2017-04-06T05:57:50.341Z,3.8
2017-04-06T05:58:52.213Z,3.8
2017-04-06T05:59:54.014Z,3.8
2017-04-06T06:00:55.881Z,3.8
2017-04-06T06:01:57.668Z,3.8
2017-04-06T06:02:59.520Z,3.9
2017-04-06T06:04:01.320Z,3.8
2017-04-06T06:05:03.107Z,3.9
2017-04-06T06:06:04.899Z,3.9
2017-04-06T06:07:06.687Z,3.9
2017-04-06T06:08:08.507Z,4
2017-04-06T06:09:10.298Z,4
2017-04-06T06:10:12.185Z,4
2017-04-06T06:11:14.014Z,4
2017-04-06T06:12:15.898Z,4
2017-04-06T06:13:17.685Z,4.1
2017-04-06T06:14:19.906Z,4.1
2017-04-06T06:15:21.704Z,4.1
2017-04-06T06:16:23.495Z,4.1
2017-04-06T06:17:25.284Z,4.2
2017-04-06T06:18:27.062Z,4.2
2017-04-06T06:19:28.853Z,4.2
2017-04-06T06:20:30.641Z,4.2
2017-04-06T06:21:32.536Z,4.2
2017-04-06T06:22:34.330Z,4.2
2017-04-06T06:23:36.212Z,4.3
2017-04-06T06:24:38.008Z,4.3
2017-04-06T06:25:39.835Z,4.3
2017-04-06T06:26:41.620Z,4.4
2017-04-06T06:27:43.421Z,4.4
2017-04-06T06:28:45.219Z,4.4
2017-04-06T06:29:47.011Z,4.5
2017-04-06T06:30:48.894Z,4.5
2017-04-06T06:31:50.689Z,4.6
2017-04-06T06:32:52.505Z,4.6
2017-04-06T06:33:54.297Z,4.6
2017-04-06T06:34:56.091Z,4.7
2017-04-06T06:35:57.898Z,4.7
2017-04-06T06:36:59.697Z,4.7
2017-04-06T06:38:01.492Z,4.7
2017-04-06T06:39:03.283Z,4.8
2017-04-06T06:40:05.067Z,4.8
2017-04-06T06:41:06.865Z,4.8
2017-04-06T06:42:08.725Z,4.9
2017-04-06T06:43:10.849Z,4.9
2017-04-06T06:44:12.634Z,4.9
2017-04-06T06:45:14.586Z,4.9
2017-04-06T06:46:16.721Z,5
2017-04-06T06:47:18.909Z,5.1
2017-04-06T06:48:20.691Z,5.1
2017-04-06T06:49:22.834Z,5.1
2017-04-06T06:50:24.671Z,5.1
2017-04-06T06:51:26.464Z,5.1
2017-04-06T06:52:28.254Z,5.1
2017-04-06T06:53:30.047Z,5.2
2017-04-06T06:54:31.841Z,5.2
2017-04-06T06:55:34.124Z,5.2
2017-04-06T06:56:36.227Z,5.2
2017-04-06T06:57:38.018Z,5.3
2017-04-06T06:58:39.838Z,5.3
2017-04-06T06:59:41.623Z,5.4
2017-04-06T07:00:43.419Z,5.4
2017-04-06T07:01:45.544Z,5.4
2017-04-06T07:02:47.345Z,5.4
2017-04-06T07:03:49.605Z,5.4
2017-04-06T07:04:51.389Z,5.5
2017-04-06T07:05:53.184Z,5.5
2017-04-06T07:06:55.107Z,5.5
2017-04-06T07:07:56.901Z,5.6
2017-04-06T07:08:58.694Z,5.7
2017-04-06T07:10:00.826Z,5.7
2017-04-06T07:11:02.614Z,5.7
2017-04-06T07:12:04.893Z,5.8
2017-04-06T07:13:06.676Z,5.7
2017-04-06T07:14:08.466Z,5.8
2017-04-06T07:15:10.258Z,5.8
2017-04-06T07:16:12.058Z,5.9
2017-04-06T07:17:13.889Z,5.9
2017-04-06T07:18:15.687Z,5.9
2017-04-06T07:19:17.487Z,6
2017-04-06T07:20:19.284Z,6.1
2017-04-06T07:21:21.098Z,6.2
2017-04-06T07:22:22.893Z,6.1
2017-04-06T07:23:24.685Z,6.3
2017-04-06T07:24:26.550Z,6.4
2017-04-06T07:25:28.342Z,6.5
2017-04-06T07:26:30.128Z,6.5
2017-04-06T07:27:31.929Z,6.4
2017-04-06T07:28:34.075Z,6.4
2017-04-06T07:29:35.868Z,6.6
2017-04-06T07:30:37.661Z,6.6
2017-04-06T07:31:39.456Z,6.6
2017-04-06T07:32:41.247Z,6.6
2017-04-06T07:33:43.041Z,6.7
2017-04-06T07:34:44.898Z,6.8
2017-04-06T07:35:46.695Z,6.8
2017-04-06T07:36:48.486Z,6.8
2017-04-06T07:37:50.291Z,6.9
2017-04-06T07:38:52.077Z,6.9
2017-04-06T07:39:53.899Z,6.9
2017-04-06T07:40:55.818Z,6.9
2017-04-06T07:41:57.610Z,6.9
2017-04-06T07:42:59.402Z,6.9
2017-04-06T07:44:01.193Z,7.1
2017-04-06T07:45:02.995Z,7.1
2017-04-06T07:46:04.786Z,7.2
2017-04-06T07:47:07.111Z,7.1
2017-04-06T07:48:08.904Z,7.2
2017-04-06T07:49:10.711Z,7.3
2017-04-06T07:50:12.495Z,7.3
2017-04-06T07:51:14.292Z,7.3
2017-04-06T07:52:16.092Z,7.3
2017-04-06T07:53:17.884Z,7.3
2017-04-06T07:54:19.683Z,7.4
2017-04-06T07:55:21.475Z,7.5
2017-04-06T07:56:23.266Z,7.7
2017-04-06T07:57:25.072Z,7.8
2017-04-06T07:58:27.214Z,8
2017-04-06T07:59:29.253Z,8.2
2017-04-06T08:00:31.046Z,8.4
2017-04-06T08:01:32.856Z,8.5
2017-04-06T08:02:34.643Z,8.5
2017-04-06T08:03:36.433Z,8.8
2017-04-06T08:04:38.225Z,8.8
2017-04-06T08:05:40.356Z,8.5
2017-04-06T08:06:42.152Z,8.5
2017-04-06T08:07:44.185Z,8.5
2017-04-06T08:08:45.979Z,8.8
2017-04-06T08:09:47.769Z,8.8
2017-04-06T08:10:49.573Z,8.9
2017-04-06T08:11:51.363Z,8.5
2017-04-06T08:12:53.497Z,8.4
2017-04-06T08:13:55.302Z,8.4
2017-04-06T08:14:57.100Z,8.5
2017-04-06T08:15:59.031Z,8.8
2017-04-06T08:17:01.176Z,9.1
2017-04-06T08:18:02.972Z,9
2017-04-06T08:19:04.783Z,9.1
2017-04-06T08:20:06.577Z,9.2
2017-04-06T08:21:08.370Z,8.9
2017-04-06T08:22:10.162Z,8.9
2017-04-06T08:23:11.960Z,9
2017-04-06T08:24:14.048Z,9.2
2017-04-06T08:25:15.846Z,9.1
2017-04-06T08:26:17.641Z,9.2
2017-04-06T08:27:19.428Z,9.2
2017-04-06T08:28:21.222Z,9.3
2017-04-06T08:29:23.015Z,9.7
2017-04-06T08:30:24.809Z,9.7
2017-04-06T08:31:26.845Z,9.9
2017-04-06T08:32:28.914Z,9.6
2017-04-06T08:33:30.707Z,9.6
2017-04-06T08:34:32.515Z,10
2017-04-06T08:35:34.307Z,9.8
2017-04-06T08:36:36.109Z,10.3
2017-04-06T08:37:37.910Z,10.1
2017-04-06T08:38:39.721Z,10.2
2017-04-06T08:39:41.778Z,9.9
2017-04-06T08:40:43.578Z,10
2017-04-06T08:41:45.376Z,10.2
2017-04-06T08:42:47.171Z,10.3
2017-04-06T08:43:49.314Z,10
2017-04-06T08:44:51.110Z,10.1
2017-04-06T08:45:52.912Z,10.2
2017-04-06T08:46:54.714Z,10.7
2017-04-06T08:47:56.820Z,10.4
2017-04-06T08:48:58.613Z,10.8
2017-04-06T08:50:00.416Z,10.6
2017-04-06T08:51:02.215Z,10.8
2017-04-06T08:52:04.020Z,10.5
2017-04-06T08:53:05.820Z,10.6
2017-04-06T08:54:07.624Z,10.5
2017-04-06T08:55:09.423Z,10.3
2017-04-06T08:56:11.495Z,10.3
2017-04-06T08:57:13.292Z,10.6
2017-04-06T08:58:15.091Z,10.6
2017-04-06T08:59:16.893Z,11.2
2017-04-06T09:00:18.703Z,11.1
2017-04-06T09:01:20.508Z,11.4
2017-04-06T09:02:22.317Z,11.4
2017-04-06T09:03:24.227Z,11
2017-04-06T09:04:26.216Z,11.2
2017-04-06T09:05:28.028Z,11.5
2017-04-06T09:06:29.837Z,11.8
2017-04-06T09:07:31.645Z,11.5
2017-04-06T09:08:33.784Z,11.2
2017-04-06T09:09:35.926Z,11.4
2017-04-06T09:10:37.729Z,11.6
2017-04-06T09:11:39.545Z,11.5
2017-04-06T09:12:41.524Z,11.8
2017-04-06T09:13:43.332Z,11.8
2017-04-06T09:14:45.487Z,11.6
2017-04-06T09:15:47.646Z,11.6
2017-04-06T09:16:49.450Z,11.6
2017-04-06T09:17:51.263Z,11.9
2017-04-06T09:18:53.069Z,12.3
2017-04-06T09:19:54.890Z,11.8
2017-04-06T09:20:56.696Z,12
2017-04-06T09:21:58.510Z,11.6
2017-04-06T09:23:00.437Z,12.2
2017-04-06T09:24:02.243Z,12.1
2017-04-06T09:25:04.054Z,11.5
2017-04-06T09:26:05.859Z,11.9
2017-04-06T09:27:08.007Z,12.4
2017-04-06T09:28:10.065Z,12.3
2017-04-06T09:29:12.229Z,11.8
2017-04-06T09:30:14.029Z,11.9
2017-04-06T09:31:15.859Z,12.1
2017-04-06T09:32:18.008Z,12.4
2017-04-06T09:33:20.113Z,12
2017-04-06T09:34:21.919Z,11.6
2017-04-06T09:35:23.738Z,12.3
2017-04-06T09:36:25.552Z,12.3
2017-04-06T09:37:27.363Z,12.4
2017-04-06T09:38:29.178Z,11.7
2017-04-06T09:39:30.991Z,12.1
2017-04-06T09:40:32.798Z,12.3
2017-04-06T09:41:34.618Z,12.4
2017-04-06T09:42:36.428Z,12.7
2017-04-06T09:43:38.240Z,12.5
2017-04-06T09:44:40.654Z,12.7
2017-04-06T09:45:42.463Z,12.6
2017-04-06T09:46:44.277Z,12.9
2017-04-06T09:47:46.091Z,12.5
2017-04-06T09:48:48.232Z,13
2017-04-06T09:49:50.045Z,12.7
2017-04-06T09:50:51.853Z,12.8
2017-04-06T09:51:53.660Z,12.9
2017-04-06T09:52:55.467Z,12.4
2017-04-06T09:53:57.279Z,12.8
2017-04-06T09:54:59.421Z,13
2017-04-06T09:56:01.222Z,13.2
2017-04-06T09:57:03.028Z,13.4
2017-04-06T09:58:04.847Z,13.3
2017-04-06T09:59:06.657Z,12.9
2017-04-06T10:00:08.469Z,12.9
2017-04-06T10:01:10.270Z,13.1
2017-04-06T10:02:12.087Z,13
2017-04-06T10:03:14.234Z,13.1
2017-04-06T10:04:16.048Z,12.6
2017-04-06T10:05:17.849Z,12.8
2017-04-06T10:06:19.664Z,12.9
2017-04-06T10:07:21.476Z,12.6
2017-04-06T10:08:23.286Z,12.8
2017-04-06T10:09:25.080Z,12.9
2017-04-06T10:10:26.891Z,13.4
2017-04-06T10:11:28.697Z,13.6
2017-04-06T10:12:30.510Z,13.5
2017-04-06T10:13:32.314Z,13.7
2017-04-06T10:14:34.475Z,13.3
2017-04-06T10:15:36.285Z,13.2
2017-04-06T10:16:38.092Z,13.6
2017-04-06T10:17:39.895Z,13.9
2017-04-06T10:18:41.695Z,13.7
2017-04-06T10:19:43.512Z,13.6
2017-04-06T10:20:45.318Z,13.6
2017-04-06T10:21:47.132Z,13.7
2017-04-06T10:22:48.929Z,14
2017-04-06T10:23:50.746Z,14.2
2017-04-06T10:24:52.557Z,13.9
2017-04-06T10:25:54.368Z,13.6
2017-04-06T10:26:56.176Z,13.4
2017-04-06T10:27:57.995Z,14
2017-04-06T10:28:59.813Z,13.7
2017-04-06T10:30:01.624Z,14.1
2017-04-06T10:31:03.425Z,13.4
2017-04-06T10:32:05.236Z,13.8
2017-04-06T10:33:07.045Z,13.5
2017-04-06T10:34:08.854Z,14.3
2017-04-06T10:35:10.662Z,14.2
2017-04-06T10:36:12.467Z,13.9
2017-04-06T10:37:14.282Z,14.3
2017-04-06T10:38:16.102Z,14.9
2017-04-06T10:39:17.908Z,14.5
2017-04-06T10:40:19.721Z,14.6
2017-04-06T10:41:21.871Z,14.6
2017-04-06T10:42:23.672Z,14.4
2017-04-06T10:43:25.483Z,15.2
2017-04-06T10:44:27.295Z,14.9
2017-04-06T10:45:29.109Z,14.5
2017-04-06T10:46:30.906Z,14.6
2017-04-06T10:47:32.726Z,14.7
2017-04-06T10:48:34.867Z,14.4
2017-04-06T10:49:36.674Z,13.7
2017-04-06T10:50:38.482Z,14.1
2017-04-06T10:51:40.626Z,14.3
2017-04-06T10:52:42.449Z,14.3
2017-04-06T10:53:44.262Z,15
2017-04-06T10:54:46.103Z,14.9
2017-04-06T10:55:48.564Z,14.6
2017-04-06T10:56:50.688Z,14.6
2017-04-06T10:57:52.811Z,14.6
2017-04-06T10:58:56.241Z,14.8
2017-04-06T10:59:58.674Z,15.2
2017-04-06T11:01:01.009Z,14.9
2017-04-06T11:02:03.512Z,14.6
2017-04-06T11:03:06.521Z,15
2017-04-06T11:04:09.143Z,15.4
2017-04-06T11:05:11.343Z,15.3
2017-04-06T11:06:13.591Z,15.2
2017-04-06T11:07:16.203Z,15.8
2017-04-06T11:08:18.439Z,15.6
2017-04-06T11:09:20.439Z,15.5
2017-04-06T11:10:22.816Z,15.2
2017-04-06T11:11:25.160Z,15.4
2017-04-06T11:12:27.241Z,15.5
2017-04-06T11:13:30.730Z,14.8
2017-04-06T11:14:32.941Z,15
2017-04-06T11:15:34.767Z,15.4
2017-04-06T11:16:37.565Z,15
2017-04-06T11:17:39.709Z,16.1
2017-04-06T11:18:41.825Z,15.8
2017-04-06T11:19:43.869Z,15.7
2017-04-06T11:20:46.209Z,15.1
2017-04-06T11:21:48.366Z,14.8
2017-04-06T11:22:50.758Z,15.3
2017-04-06T11:23:53.706Z,15.1
2017-04-06T11:24:57.104Z,15.2
2017-04-06T11:25:59.075Z,15.1
2017-04-06T11:27:00.918Z,15.2
2017-04-06T11:28:03.353Z,15.4
2017-04-06T11:29:05.819Z,15.4
2017-04-06T11:30:07.862Z,14.9
2017-04-06T11:31:09.735Z,15.2
2017-04-06T11:32:12.046Z,15.6
2017-04-06T11:33:15.167Z,15.6
2017-04-06T11:34:17.005Z,15.6
2017-04-06T11:35:19.036Z,15.7
2017-04-06T11:36:20.944Z,15.4
2017-04-06T11:37:22.763Z,15.7
2017-04-06T11:38:24.917Z,15.6
2017-04-06T11:39:26.732Z,15.5
2017-04-06T11:40:28.549Z,15.9
2017-04-06T11:41:30.364Z,15.7
2017-04-06T11:42:32.167Z,15.8
2017-04-06T11:43:34.322Z,15.7
2017-04-06T11:44:36.481Z,16.2
2017-04-06T11:45:38.373Z,16.5
2017-04-06T11:46:40.184Z,16.4
2017-04-06T11:47:41.998Z,15.9
2017-04-06T11:48:43.812Z,15.9
2017-04-06T11:49:45.641Z,15.9
2017-04-06T11:50:47.459Z,15.4
2017-04-06T11:51:49.287Z,15.7
2017-04-06T11:52:51.096Z,15.5
2017-04-06T11:53:52.921Z,14.8
2017-04-06T11:54:54.734Z,15.5
2017-04-06T11:55:56.547Z,15.9
2017-04-06T11:56:58.361Z,16
2017-04-06T11:58:00.173Z,16
2017-04-06T11:59:02.056Z,16
2017-04-06T12:00:03.864Z,16.5
2017-04-06T12:01:05.685Z,16.2
2017-04-06T12:02:07.494Z,16
2017-04-06T12:03:09.650Z,15.5
2017-04-06T12:04:11.472Z,15
2017-04-06T12:05:13.633Z,15.3
2017-04-06T12:06:15.453Z,15.3
2017-04-06T12:07:17.422Z,15.4
2017-04-06T12:08:19.238Z,15.4
2017-04-06T12:09:21.745Z,15.8
2017-04-06T12:10:23.557Z,16.2
2017-04-06T12:11:25.374Z,16.1
2017-04-06T12:12:27.192Z,15.7
2017-04-06T12:13:28.996Z,16
2017-04-06T12:14:30.870Z,15.8
2017-04-06T12:15:32.714Z,16.6
2017-04-06T12:16:34.541Z,15.9
2017-04-06T12:17:36.360Z,15.7
2017-04-06T12:18:38.179Z,15.6
2017-04-06T12:19:39.999Z,14.5
2017-04-06T12:20:41.831Z,14.5
2017-04-06T12:21:43.648Z,15.1
2017-04-06T12:22:45.806Z,14.9
2017-04-06T12:23:47.956Z,15.5
2017-04-06T12:24:49.774Z,15.7
2017-04-06T12:25:51.585Z,15.3
2017-04-06T12:26:53.407Z,16
2017-04-06T12:27:55.215Z,16.2
2017-04-06T12:28:57.027Z,15.6
2017-04-06T12:29:58.840Z,15.3
2017-04-06T12:31:00.655Z,15.6
2017-04-06T12:32:02.816Z,15.8
2017-04-06T12:33:04.628Z,16.1
2017-04-06T12:34:06.448Z,15.6
2017-04-06T12:35:08.590Z,15.4
2017-04-06T12:36:10.403Z,14.9
2017-04-06T12:37:12.237Z,14.6
2017-04-06T12:38:14.056Z,15.3
2017-04-06T12:39:15.864Z,15.1
2017-04-06T12:40:17.682Z,15.6
2017-04-06T12:41:19.503Z,16.1
2017-04-06T12:42:21.319Z,15.5
2017-04-06T12:43:23.458Z,15.8
2017-04-06T12:44:26.781Z,16.1
2017-04-06T12:45:29.118Z,16.2
2017-04-06T12:46:31.786Z,16
2017-04-06T12:47:34.769Z,16
2017-04-06T12:48:37.886Z,15.8
2017-04-06T12:49:40.554Z,15.8
2017-04-06T12:50:43.502Z,15.6
2017-04-06T12:51:46.520Z,15
2017-04-06T12:52:49.561Z,15.1
2017-04-06T12:53:52.164Z,15
2017-04-06T12:54:56.743Z,14.9
2017-04-06T12:55:59.075Z,14.6
2017-04-06T12:57:01.626Z,14.4
2017-04-06T12:58:04.357Z,14.7
2017-04-06T12:59:07.180Z,14.9
2017-04-06T13:00:11.401Z,14.9
2017-04-06T13:01:14.025Z,14.7
2017-04-06T13:02:17.411Z,14.6
2017-04-06T13:03:20.987Z,15.1
2017-04-06T13:04:26.565Z,15.1
2017-04-06T13:05:28.636Z,15.1
2017-04-06T13:06:30.970Z,15.2
2017-04-06T13:07:34.861Z,14.7
2017-04-06T13:08:38.401Z,14.9
2017-04-06T13:09:41.103Z,15.4
2017-04-06T13:10:48.982Z,15
2017-04-06T13:11:52.167Z,15
2017-04-06T13:12:54.851Z,15.8
2017-04-06T13:14:00.641Z,15.7
2017-04-06T13:15:03.402Z,15.6
2017-04-06T13:16:06.746Z,16
2017-04-06T13:17:10.290Z,15.9
2017-04-06T13:18:12.124Z,15.3
2017-04-06T13:20:12.896Z,14.8
2017-04-06T13:21:15.405Z,14.3
2017-04-06T13:22:17.231Z,14.3
2017-04-06T13:23:19.056Z,14.5
2017-04-06T13:24:20.947Z,14.4
2017-04-06T13:25:22.765Z,15
2017-04-06T13:26:40.790Z,14.7
2017-04-06T13:27:42.941Z,14.7
2017-04-06T13:28:45.523Z,14.9
2017-04-06T13:29:47.368Z,14
2017-04-06T13:30:49.176Z,14.4
2017-04-06T13:31:50.992Z,14.3
2017-04-06T13:32:52.793Z,14.5
2017-04-06T13:33:54.613Z,14.2
2017-04-06T13:34:56.426Z,14.5
2017-04-06T13:35:58.230Z,14
2017-04-06T13:37:00.039Z,13.8
2017-04-06T13:38:02.535Z,13.9
2017-04-06T13:39:04.339Z,13.7
2017-04-06T13:40:08.066Z,13.5
2017-04-06T13:41:09.889Z,13.7
2017-04-06T13:42:11.693Z,13.7
2017-04-06T13:43:13.505Z,13.5
2017-04-06T13:44:15.310Z,13.3
2017-04-06T13:45:17.125Z,13.5
2017-04-06T13:46:18.937Z,13.4
2017-04-06T13:47:20.745Z,13.4
2017-04-06T13:48:22.565Z,13.6
2017-04-06T13:49:24.383Z,13.2
2017-04-06T13:50:26.185Z,13
2017-04-06T13:51:27.993Z,13.1
2017-04-06T13:52:29.791Z,13.3
2017-04-06T13:53:31.591Z,13.5
2017-04-06T13:54:33.742Z,13.1
2017-04-06T13:55:35.548Z,13.2
2017-04-06T13:56:37.689Z,13
2017-04-06T13:57:39.489Z,13.1
2017-04-06T13:58:41.296Z,13.5
2017-04-06T13:59:43.098Z,13.2
2017-04-06T14:00:45.236Z,13.9
2017-04-06T14:01:47.040Z,14.3
2017-04-06T14:02:48.856Z,14
2017-04-06T14:03:50.657Z,14.1
2017-04-06T14:04:52.804Z,14.1
2017-04-06T14:05:54.602Z,13.9
2017-04-06T14:06:56.432Z,13.8